createdAt,value
2023-04-09T00:00:41.143Z,13.02
2023-04-09T00:03:07.577Z,11.70
2023-04-09T00:05:38.750Z,11.15
2023-04-09T00:08:05.216Z,11.20
2023-04-09T00:10:31.592Z,10.82
2023-04-09T00:12:57.855Z,12.43
2023-04-09T00:15:30.545Z,11.85
2023-04-09T00:17:57.373Z,12.25
2023-04-09T00:20:23.683Z,11.77
2023-04-09T00:22:49.942Z,10.13
2023-04-09T00:25:16.268Z,12.50
2023-04-09T00:27:42.540Z,9.90
2023-04-09T00:30:09.410Z,10.32
2023-04-09T00:32:35.757Z,10.45
2023-04-09T00:35:02.068Z,9.77
2023-04-09T00:37:28.393Z,12.63
2023-04-09T00:39:54.774Z,12.82
2023-04-09T00:42:21.075Z,10.48
2023-04-09T00:44:47.355Z,13.30
2023-04-09T00:47:13.908Z,14.02
2023-04-09T00:49:40.202Z,11.02
2023-04-09T00:52:07.620Z,10.60
2023-04-09T00:54:34.007Z,12.07
2023-04-09T00:57:00.388Z,11.15
2023-04-09T00:59:26.667Z,12.50
2023-04-09T01:01:53.069Z,11.55
2023-04-09T01:04:21.248Z,11.65
2023-04-09T01:06:58.861Z,13.65
2023-04-09T01:09:31.533Z,12.80
2023-04-09T01:12:36.606Z,11.32
2023-04-09T01:15:06.200Z,11.30
2023-04-09T01:17:44.435Z,10.15
2023-04-09T01:20:22.274Z,13.20
2023-04-09T01:23:07.444Z,9.75
2023-04-09T01:26:05.848Z,10.23
2023-04-09T01:28:43.362Z,10.90
2023-04-09T01:31:17.054Z,11.32
2023-04-09T01:36:11.168Z,11.75
2023-04-09T01:38:41.219Z,9.88
2023-04-09T01:41:10.250Z,12.48
2023-04-09T01:43:38.036Z,13.32
2023-04-09T01:46:04.662Z,10.32
2023-04-09T01:48:32.784Z,13.30
2023-04-09T01:50:59.306Z,12.77
2023-04-09T01:53:25.592Z,11.27
2023-04-09T01:55:51.890Z,11.35
2023-04-09T01:58:18.192Z,11.25
2023-04-09T02:00:48.833Z,11.98
2023-04-09T02:03:21.577Z,10.20
2023-04-09T02:06:25.844Z,11.13
2023-04-09T02:08:53.732Z,9.85
2023-04-09T02:11:23.424Z,11.95
2023-04-09T02:13:49.782Z,10.70
2023-04-09T02:16:17.256Z,10.15
2023-04-09T02:21:10.036Z,12.27
2023-04-09T02:23:36.458Z,10.93
2023-04-09T02:26:02.803Z,12.43
2023-04-09T02:28:29.078Z,11.85
2023-04-09T02:30:55.406Z,11.65
2023-04-09T02:33:21.813Z,12.95
2023-04-09T02:35:48.088Z,12.20
2023-04-09T02:38:14.514Z,9.90
2023-04-09T02:40:41.433Z,11.98
2023-04-09T02:43:08.669Z,13.02
2023-04-09T02:45:35.299Z,12.52
2023-04-09T02:48:01.805Z,12.48
2023-04-09T02:50:29.530Z,14.80
2023-04-09T02:52:55.882Z,12.73
2023-04-09T02:55:22.292Z,12.30
2023-04-09T02:57:48.655Z,11.48
2023-04-09T03:00:14.995Z,12.05
2023-04-09T03:02:41.505Z,10.98
2023-04-09T03:05:08.218Z,14.43
2023-04-09T03:07:34.621Z,15.15
2023-04-09T03:10:00.931Z,13.63
2023-04-09T03:12:27.351Z,15.57
2023-04-09T03:14:53.661Z,12.05
2023-04-09T03:17:19.951Z,10.85
2023-04-09T03:19:46.321Z,11.15
2023-04-09T03:22:12.681Z,11.80
2023-04-09T03:24:38.984Z,14.43
2023-04-09T03:27:05.269Z,10.35
2023-04-09T03:29:31.571Z,13.57
2023-04-09T03:31:57.835Z,13.27
2023-04-09T03:34:24.216Z,14.00
2023-04-09T03:36:50.497Z,12.10
2023-04-09T03:39:16.760Z,13.30
2023-04-09T03:41:43.073Z,12.90
2023-04-09T03:44:09.364Z,13.43
2023-04-09T03:46:35.706Z,12.05
2023-04-09T03:49:02.040Z,13.45
2023-04-09T03:51:28.345Z,9.93
2023-04-09T03:53:54.645Z,13.52
2023-04-09T03:56:20.963Z,11.48
2023-04-09T03:58:47.344Z,9.82
2023-04-09T04:01:13.726Z,11.25
2023-04-09T04:03:40.220Z,11.52
2023-04-09T04:06:06.612Z,11.38
2023-04-09T04:08:32.870Z,11.75
2023-04-09T04:11:05.390Z,11.27
2023-04-09T04:13:31.990Z,12.57
2023-04-09T04:15:58.323Z,11.35
2023-04-09T04:18:24.639Z,10.90
2023-04-09T04:20:50.934Z,9.65
2023-04-09T04:23:17.225Z,11.55
2023-04-09T04:25:43.540Z,10.95
2023-04-09T04:28:09.810Z,10.32
2023-04-09T04:30:36.085Z,11.75
2023-04-09T04:33:02.402Z,14.55
2023-04-09T04:35:28.881Z,10.93
2023-04-09T04:37:55.153Z,13.60
2023-04-09T04:40:21.429Z,13.10
2023-04-09T04:42:47.788Z,10.18
2023-04-09T04:45:14.140Z,12.15
2023-04-09T04:47:40.564Z,14.43
2023-04-09T04:50:07.727Z,11.98
2023-04-09T04:52:33.993Z,11.52
2023-04-09T04:55:00.275Z,10.65
2023-04-09T04:57:26.641Z,11.27
2023-04-09T04:59:53.062Z,11.18
2023-04-09T05:02:19.625Z,13.05
2023-04-09T05:04:46.176Z,9.85
2023-04-09T05:07:12.573Z,13.38
2023-04-09T05:09:38.855Z,9.82
2023-04-09T05:12:05.172Z,9.13
2023-04-09T05:14:31.467Z,10.45
2023-04-09T05:16:57.763Z,11.52
2023-04-09T05:19:24.093Z,9.90
2023-04-09T05:21:50.353Z,10.73
2023-04-09T05:24:16.627Z,11.82
2023-04-09T05:26:42.965Z,10.13
2023-04-09T05:29:09.419Z,12.32
2023-04-09T05:31:35.694Z,10.60
2023-04-09T05:34:01.975Z,11.48
2023-04-09T05:36:28.395Z,11.07
2023-04-09T05:38:55.050Z,13.43
2023-04-09T05:41:21.668Z,13.40
2023-04-09T05:43:48.018Z,13.35
2023-04-09T05:46:14.403Z,15.73
2023-04-09T05:48:40.743Z,14.75
2023-04-09T05:51:07.057Z,16.02
2023-04-09T05:53:34.123Z,12.93
2023-04-09T05:56:00.583Z,11.00
2023-04-09T05:58:28.819Z,12.27
2023-04-09T06:00:55.148Z,14.27
2023-04-09T06:03:21.651Z,16.80
2023-04-09T06:05:48.092Z,18.52
2023-04-09T06:08:14.458Z,18.65
2023-04-09T06:10:41.450Z,17.80
2023-04-09T06:13:08.035Z,17.27
2023-04-09T06:15:34.363Z,12.20
2023-04-09T06:18:00.775Z,11.88
2023-04-09T06:20:27.036Z,11.68
2023-04-09T06:22:53.299Z,14.23
2023-04-09T06:25:19.726Z,13.35
2023-04-09T06:27:46.008Z,14.45
2023-04-09T06:30:12.549Z,18.17
2023-04-09T06:32:50.875Z,17.00
2023-04-09T06:35:19.878Z,15.80
2023-04-09T06:37:46.281Z,21.55
2023-04-09T06:40:12.940Z,16.45
2023-04-09T06:42:39.316Z,15.35
2023-04-09T06:45:06.195Z,16.58
2023-04-09T06:47:32.528Z,15.32
2023-04-09T06:49:58.829Z,15.88
2023-04-09T06:52:25.134Z,17.20
2023-04-09T06:54:51.406Z,18.65
2023-04-09T06:57:17.836Z,19.65
2023-04-09T06:59:44.255Z,19.23
2023-04-09T07:02:10.851Z,17.52
2023-04-09T07:04:37.309Z,17.13
2023-04-09T07:07:03.732Z,17.92
2023-04-09T07:09:30.038Z,16.98
2023-04-09T07:11:56.380Z,17.15
2023-04-09T07:14:22.765Z,18.65
2023-04-09T07:16:49.060Z,16.92
2023-04-09T07:19:15.357Z,20.30
2023-04-09T07:21:41.678Z,21.25
2023-04-09T07:24:08.015Z,18.58
2023-04-09T07:26:34.302Z,21.42
2023-04-09T07:29:00.574Z,18.10
2023-04-09T07:31:26.900Z,20.38
2023-04-09T07:33:53.480Z,19.58
2023-04-09T07:36:19.882Z,20.85
2023-04-09T07:38:46.289Z,20.98
2023-04-09T07:41:12.787Z,19.35
2023-04-09T07:43:39.146Z,17.83
2023-04-09T07:46:05.550Z,21.23
2023-04-09T07:48:32.179Z,19.35
2023-04-09T07:50:58.485Z,18.67
2023-04-09T07:53:24.974Z,18.73
2023-04-09T07:55:51.508Z,18.90
2023-04-09T07:58:17.808Z,21.77
2023-04-09T08:00:44.118Z,20.65
2023-04-09T08:03:10.558Z,20.80
2023-04-09T08:05:36.927Z,17.42
2023-04-09T08:08:03.413Z,18.42
2023-04-09T08:10:29.679Z,20.83
2023-04-09T08:12:55.977Z,21.20
2023-04-09T08:15:22.406Z,20.48
2023-04-09T08:17:48.782Z,21.73
2023-04-09T08:20:15.224Z,17.58
2023-04-09T08:22:41.517Z,20.42
2023-04-09T08:25:08.145Z,18.45
2023-04-09T08:27:34.448Z,17.77
2023-04-09T08:30:00.729Z,18.52
2023-04-09T08:32:27.097Z,17.15
2023-04-09T08:34:53.381Z,20.00
2023-04-09T08:37:19.658Z,18.60
2023-04-09T08:39:46.058Z,19.30
2023-04-09T08:42:14.612Z,15.48
2023-04-09T08:44:40.949Z,15.63
2023-04-09T08:47:08.931Z,16.63
2023-04-09T08:49:35.667Z,17.63
2023-04-09T08:52:02.042Z,16.70
2023-04-09T08:54:28.439Z,16.65
2023-04-09T08:56:54.753Z,18.95
2023-04-09T08:59:21.032Z,18.15
2023-04-09T09:01:47.383Z,15.40
2023-04-09T09:04:13.834Z,16.17
2023-04-09T09:06:41.350Z,16.60
2023-04-09T09:09:13.045Z,15.30
2023-04-09T09:11:46.959Z,16.35
2023-04-09T09:14:16.501Z,18.52
2023-04-09T09:17:04.795Z,17.27
2023-04-09T09:19:33.410Z,14.82
2023-04-09T09:22:06.440Z,14.65
2023-04-09T09:24:33.053Z,20.30
2023-04-09T09:26:59.729Z,16.25
2023-04-09T09:29:27.427Z,17.27
2023-04-09T09:31:55.744Z,15.63
2023-04-09T09:34:23.361Z,14.65
2023-04-09T09:36:50.162Z,14.15
2023-04-09T09:39:17.432Z,15.05
2023-04-09T09:41:46.848Z,15.25
2023-04-09T09:44:31.192Z,16.33
2023-04-09T09:46:59.075Z,16.48
2023-04-09T09:49:25.427Z,15.18
2023-04-09T09:51:56.612Z,14.23
2023-04-09T09:54:25.877Z,14.77
2023-04-09T09:56:55.227Z,14.43
2023-04-09T09:59:23.338Z,13.77
2023-04-09T10:02:04.326Z,14.38
2023-04-09T10:04:34.134Z,14.05
2023-04-09T10:07:03.461Z,16.05
2023-04-09T10:09:30.832Z,13.45
2023-04-09T10:14:24.739Z,13.90
2023-04-09T10:16:51.150Z,13.32
2023-04-09T10:19:18.336Z,11.93
2023-04-09T10:21:53.609Z,14.63
2023-04-09T10:24:20.273Z,12.38
2023-04-09T10:26:46.697Z,16.73
2023-04-09T10:29:15.014Z,13.30
2023-04-09T10:31:51.242Z,14.07
2023-04-09T10:34:20.294Z,17.83
2023-04-09T10:36:51.097Z,15.32
2023-04-09T10:39:17.502Z,14.65
2023-04-09T10:41:45.310Z,13.55
2023-04-09T10:44:21.431Z,13.13
2023-04-09T10:46:47.937Z,12.23
2023-04-09T10:49:22.217Z,10.70
2023-04-09T10:52:12.498Z,12.45
2023-04-09T10:54:44.018Z,11.85
2023-04-09T10:57:11.626Z,12.70
2023-04-09T10:59:40.265Z,11.50
2023-04-09T11:02:28.727Z,11.43
2023-04-09T11:05:13.949Z,10.85
2023-04-09T11:07:43.969Z,9.40
2023-04-09T11:10:10.285Z,10.50
2023-04-09T11:12:36.589Z,8.57
2023-04-09T11:15:03.745Z,8.80
2023-04-09T11:17:35.810Z,8.43
2023-04-09T11:20:03.384Z,9.15
2023-04-09T11:22:29.813Z,8.15
2023-04-09T11:24:56.197Z,7.43
2023-04-09T11:27:22.581Z,8.70
2023-04-09T11:29:48.854Z,9.40
2023-04-09T11:32:15.130Z,9.27
2023-04-09T11:34:41.449Z,8.73
2023-04-09T11:37:15.343Z,8.57
2023-04-09T11:39:44.408Z,7.53
2023-04-09T11:42:14.548Z,8.23
2023-04-09T11:44:41.224Z,7.10
2023-04-09T11:47:11.567Z,7.93
2023-04-09T11:49:38.120Z,7.85
2023-04-09T11:52:04.906Z,7.57
2023-04-09T11:54:34.672Z,8.13
2023-04-09T11:57:03.773Z,6.55
2023-04-09T11:59:30.553Z,7.43
2023-04-09T12:01:58.476Z,7.47
2023-04-09T12:04:25.128Z,8.30
2023-04-09T12:06:51.609Z,8.73
2023-04-09T12:09:17.929Z,7.35
2023-04-09T12:11:44.807Z,7.63
2023-04-09T12:14:18.500Z,7.60
2023-04-09T12:16:45.091Z,7.97
2023-04-09T12:19:13.306Z,7.65
2023-04-09T12:21:56.443Z,6.88
2023-04-09T12:24:26.157Z,7.28
2023-04-09T12:26:52.632Z,7.05
2023-04-09T12:29:20.419Z,6.82
2023-04-09T12:31:47.570Z,7.68
2023-04-09T12:34:14.097Z,7.65
2023-04-09T12:36:43.231Z,7.40
2023-04-09T12:39:09.783Z,8.05
2023-04-09T12:41:36.289Z,7.63
2023-04-09T12:44:02.680Z,7.32
2023-04-09T12:46:29.237Z,7.07
2023-04-09T12:48:55.569Z,7.97
2023-04-09T12:51:21.868Z,7.22
2023-04-09T12:53:48.175Z,7.93
2023-04-09T12:56:14.783Z,6.43
2023-04-09T12:58:41.171Z,6.70
2023-04-09T13:01:07.801Z,6.90
2023-04-09T13:03:34.347Z,7.40
2023-04-09T13:06:00.916Z,7.40
2023-04-09T13:08:27.218Z,7.45
2023-04-09T13:10:53.564Z,7.47
2023-04-09T13:13:19.850Z,7.13
2023-04-09T13:15:46.268Z,7.35
2023-04-09T13:18:13.340Z,6.85
2023-04-09T13:23:06.244Z,8.63
2023-04-09T13:25:32.607Z,6.68
2023-04-09T13:27:58.882Z,6.53
2023-04-09T13:30:25.171Z,7.32
2023-04-09T13:32:51.614Z,7.38
2023-04-09T13:35:17.958Z,7.60
2023-04-09T13:37:44.415Z,6.85
2023-04-09T13:40:11.105Z,6.55
2023-04-09T13:42:37.494Z,8.23
2023-04-09T13:45:04.704Z,8.55
2023-04-09T13:49:57.384Z,7.88
2023-04-09T13:52:26.719Z,8.43
2023-04-09T13:54:54.550Z,6.88
2023-04-09T13:57:20.826Z,7.78
2023-04-09T13:59:47.094Z,7.63
2023-04-09T14:02:13.580Z,8.35
2023-04-09T14:04:40.186Z,8.27
2023-04-09T14:07:06.569Z,8.05
2023-04-09T14:09:32.894Z,9.68
2023-04-09T14:11:59.421Z,8.15
2023-04-09T14:14:25.810Z,7.63
2023-04-09T14:16:52.120Z,7.80
2023-04-09T14:19:18.401Z,8.55
2023-04-09T14:21:44.854Z,8.75
2023-04-09T14:24:11.251Z,7.43
2023-04-09T14:26:37.595Z,8.73
2023-04-09T14:29:03.892Z,8.27
2023-04-09T14:31:30.220Z,8.65
2023-04-09T14:33:56.706Z,10.15
2023-04-09T14:36:22.992Z,7.93
2023-04-09T14:38:49.316Z,8.32
2023-04-09T14:41:16.610Z,8.50
2023-04-09T14:46:09.140Z,7.97
2023-04-09T14:48:35.557Z,9.27
2023-04-09T14:51:01.886Z,9.73
2023-04-09T14:53:28.164Z,8.63
2023-04-09T14:55:54.477Z,8.30
2023-04-09T14:58:20.852Z,7.45
2023-04-09T15:00:47.260Z,8.25
2023-04-09T15:03:13.785Z,8.40
2023-04-09T15:05:40.283Z,8.57
2023-04-09T15:08:06.660Z,7.18
2023-04-09T15:10:32.927Z,7.57
2023-04-09T15:12:59.202Z,6.32
2023-04-09T15:15:26.695Z,8.23
2023-04-09T15:17:53.180Z,8.02
2023-04-09T15:20:19.496Z,7.88
2023-04-09T15:22:45.803Z,7.18
2023-04-09T15:25:14.183Z,7.65
2023-04-09T15:27:40.747Z,7.88
2023-04-09T15:30:08.770Z,8.02
2023-04-09T15:32:35.121Z,7.75
2023-04-09T15:35:01.547Z,8.20
2023-04-09T15:37:27.884Z,8.02
2023-04-09T15:39:54.164Z,6.70
2023-04-09T15:42:20.562Z,7.25
2023-04-09T15:44:46.845Z,6.78
2023-04-09T15:47:13.148Z,8.10
2023-04-09T15:49:39.442Z,7.18
2023-04-09T15:52:05.725Z,7.32
2023-04-09T15:54:32.099Z,6.28
2023-04-09T15:56:58.380Z,7.20
2023-04-09T15:59:24.826Z,8.73
2023-04-09T16:01:52.399Z,6.43
2023-04-09T16:04:18.823Z,7.22
2023-04-09T16:06:45.231Z,5.97
2023-04-09T16:09:11.532Z,6.90
2023-04-09T16:11:37.815Z,6.68
2023-04-09T16:14:04.248Z,7.55
2023-04-09T16:16:30.745Z,8.05
2023-04-09T16:18:57.265Z,7.80
2023-04-09T16:21:23.569Z,9.98
2023-04-09T16:23:49.921Z,9.27
2023-04-09T16:26:16.196Z,7.45
2023-04-09T16:28:42.574Z,9.63
2023-04-09T16:31:08.849Z,7.35
2023-04-09T16:33:35.222Z,9.02
2023-04-09T16:36:01.634Z,10.63
2023-04-09T16:38:27.991Z,9.85
2023-04-09T16:40:54.535Z,7.20
2023-04-09T16:43:20.819Z,8.07
2023-04-09T16:45:47.179Z,7.22
2023-04-09T16:48:13.559Z,8.93
2023-04-09T16:50:40.140Z,7.68
2023-04-09T16:53:08.308Z,7.10
2023-04-09T16:55:35.003Z,7.82
2023-04-09T16:58:01.414Z,9.00
2023-04-09T17:00:27.773Z,7.68
2023-04-09T17:02:54.261Z,8.55
2023-04-09T17:05:20.725Z,14.90
2023-04-09T17:07:47.080Z,12.43
2023-04-09T17:10:14.318Z,20.58
2023-04-09T17:12:41.477Z,24.98
2023-04-09T17:15:08.490Z,22.58
2023-04-09T17:17:34.832Z,26.60
2023-04-09T17:20:01.169Z,28.17
2023-04-09T17:22:27.544Z,17.25
2023-04-09T17:24:53.820Z,11.27
2023-04-09T17:27:20.113Z,14.52
2023-04-09T17:29:46.396Z,13.20
2023-04-09T17:32:12.687Z,11.35
2023-04-09T17:34:39.046Z,11.18
2023-04-09T17:37:05.391Z,20.02
2023-04-09T17:39:31.738Z,17.98
2023-04-09T17:41:58.049Z,14.00
2023-04-09T17:44:24.513Z,16.17
2023-04-09T17:46:50.932Z,11.02
2023-04-09T17:49:19.944Z,9.68
2023-04-09T17:51:46.306Z,9.43
2023-04-09T17:54:12.630Z,12.48
2023-04-09T17:56:40.462Z,10.43
2023-04-09T17:59:06.745Z,11.18
2023-04-09T18:01:33.467Z,14.40
2023-04-09T18:04:00.517Z,11.60
2023-04-09T18:06:27.007Z,12.02
2023-04-09T18:08:53.498Z,14.13
2023-04-09T18:11:19.990Z,10.80
2023-04-09T18:13:46.295Z,8.82
2023-04-09T18:16:12.995Z,11.63
2023-04-09T18:18:39.449Z,11.55
2023-04-09T18:21:06.407Z,9.82
2023-04-09T18:23:33.020Z,10.75
2023-04-09T18:25:59.353Z,11.63
2023-04-09T18:28:25.671Z,12.13
2023-04-09T18:30:52.075Z,11.98
2023-04-09T18:33:18.438Z,12.10
2023-04-09T18:35:44.738Z,9.65
2023-04-09T18:38:11.208Z,12.18
2023-04-09T18:40:42.976Z,12.52
2023-04-09T18:43:11.767Z,12.15
2023-04-09T18:45:38.567Z,12.48
2023-04-09T18:48:05.468Z,13.40
2023-04-09T18:50:31.829Z,13.45
2023-04-09T18:52:58.174Z,13.20
2023-04-09T18:55:24.457Z,13.82
2023-04-09T18:57:50.743Z,11.35
2023-04-09T19:00:17.085Z,12.68
2023-04-09T19:02:43.491Z,12.90
2023-04-09T19:05:10.128Z,14.02
2023-04-09T19:07:36.471Z,14.18
2023-04-09T19:10:02.918Z,13.30
2023-04-09T19:12:29.305Z,14.15
2023-04-09T19:14:55.589Z,13.18
2023-04-09T19:17:22.302Z,16.02
2023-04-09T19:19:48.643Z,18.65
2023-04-09T19:22:14.972Z,18.00
2023-04-09T19:24:43.562Z,18.05
2023-04-09T19:27:10.139Z,16.23
2023-04-09T19:29:36.448Z,16.00
2023-04-09T19:32:03.950Z,17.77
2023-04-09T19:36:56.560Z,21.05
2023-04-09T19:39:22.908Z,20.25
2023-04-09T19:41:49.328Z,26.67
2023-04-09T19:44:15.669Z,20.60
2023-04-09T19:46:41.985Z,16.20
2023-04-09T19:49:08.272Z,14.93
2023-04-09T19:51:34.561Z,14.60
2023-04-09T19:54:00.885Z,12.38
2023-04-09T19:56:27.188Z,11.80
2023-04-09T19:58:53.565Z,13.45
2023-04-09T20:01:20.078Z,11.07
2023-04-09T20:03:46.554Z,13.10
2023-04-09T20:06:13.010Z,12.77
2023-04-09T20:08:39.273Z,15.10
2023-04-09T20:11:05.806Z,17.05
2023-04-09T20:13:32.232Z,14.18
2023-04-09T20:15:58.632Z,12.43
2023-04-09T20:18:25.056Z,13.10
2023-04-09T20:20:51.357Z,13.65
2023-04-09T20:23:17.649Z,15.63
2023-04-09T20:25:44.013Z,11.85
2023-04-09T20:28:10.319Z,11.45
2023-04-09T20:30:36.605Z,11.35
2023-04-09T20:33:02.934Z,14.88
2023-04-09T20:35:29.288Z,15.98
2023-04-09T20:37:55.588Z,20.08
2023-04-09T20:40:22.094Z,17.73
2023-04-09T20:42:48.438Z,33.08
2023-04-09T20:45:14.769Z,34.42
2023-04-09T20:47:41.145Z,19.35
2023-04-09T20:50:07.781Z,17.40
2023-04-09T20:52:34.176Z,26.98
2023-04-09T20:55:00.491Z,30.77
2023-04-09T20:57:26.799Z,24.67
2023-04-09T20:59:53.123Z,20.02
2023-04-09T21:02:20.187Z,20.50
2023-04-09T21:04:46.695Z,21.85
2023-04-09T21:07:12.984Z,27.42
2023-04-09T21:09:39.271Z,26.50
2023-04-09T21:12:05.626Z,24.27
2023-04-09T21:14:31.952Z,24.20
2023-04-09T21:16:58.322Z,24.20
2023-04-09T21:19:24.693Z,20.20
2023-04-09T21:21:50.975Z,19.65
2023-04-09T21:24:17.379Z,18.38
2023-04-09T21:26:50.266Z,19.48
2023-04-09T21:29:21.432Z,18.80
2023-04-09T21:31:48.493Z,18.33
2023-04-09T21:34:14.767Z,23.67
2023-04-09T21:36:41.027Z,21.52
2023-04-09T21:39:07.373Z,21.88
2023-04-09T21:41:33.765Z,20.38
2023-04-09T21:44:00.071Z,18.58
2023-04-09T21:46:26.384Z,20.23
2023-04-09T21:48:53.043Z,18.63
2023-04-09T21:51:19.502Z,20.60
2023-04-09T21:53:45.811Z,23.85
2023-04-09T21:56:12.125Z,27.00
2023-04-09T21:58:38.441Z,27.20
2023-04-09T22:01:06.118Z,32.42
2023-04-09T22:03:34.007Z,39.03
2023-04-09T22:06:00.500Z,35.50
2023-04-09T22:08:26.869Z,33.08
2023-04-09T22:10:53.151Z,19.27
2023-04-09T22:13:19.450Z,23.45
2023-04-09T22:15:45.762Z,20.63
2023-04-09T22:18:12.030Z,25.02
2023-04-09T22:20:38.304Z,23.92
2023-04-09T22:23:04.728Z,23.63
2023-04-09T22:25:31.023Z,25.65
2023-04-09T22:27:57.797Z,24.17
2023-04-09T22:30:24.184Z,22.13
2023-04-09T22:32:50.591Z,20.20
2023-04-09T22:35:17.211Z,20.92
2023-04-09T22:37:45.032Z,21.10
2023-04-09T22:40:11.725Z,20.45
2023-04-09T22:42:38.008Z,19.48
2023-04-09T22:45:04.704Z,18.45
2023-04-09T22:47:31.012Z,16.33
2023-04-09T22:49:57.270Z,18.17
2023-04-09T22:52:23.638Z,17.52
2023-04-09T22:54:49.921Z,16.58
2023-04-09T22:57:16.238Z,15.23
2023-04-09T22:59:42.561Z,17.15
2023-04-09T23:02:08.977Z,16.83
2023-04-09T23:04:35.456Z,16.42
2023-04-09T23:07:01.969Z,19.10
2023-04-09T23:09:28.255Z,19.67
2023-04-09T23:11:54.575Z,18.92
2023-04-09T23:14:20.867Z,21.95
2023-04-09T23:16:47.148Z,18.02
2023-04-09T23:19:13.480Z,17.08
2023-04-09T23:21:39.776Z,19.05
2023-04-09T23:24:06.140Z,18.20
2023-04-09T23:26:32.569Z,16.60
2023-04-09T23:28:58.857Z,19.58
2023-04-09T23:31:25.301Z,17.88
2023-04-09T23:33:52.012Z,18.42
2023-04-09T23:36:18.524Z,18.20
2023-04-09T23:38:44.817Z,19.52
2023-04-09T23:41:11.112Z,17.55
2023-04-09T23:43:37.485Z,20.42
2023-04-09T23:46:03.893Z,16.45
2023-04-09T23:48:30.146Z,19.77
2023-04-09T23:50:56.438Z,17.15
2023-04-09T23:53:22.741Z,18.98
2023-04-09T23:55:49.038Z,18.38
2023-04-09T23:58:15.417Z,15.15
